Time;durP1;ratioP1;P1;durP2;ratioP2;P2;SDS_P1;SDS_P2;PMS_P1;PMS_P2;Temp;Humidity;BMP_temperature;BMP_pressure;BME280_temperature;BME280_humidity;BME280_pressure;Samples;Min_cycle;Max_cycle;Signal;HPM_P1;HPM_P2
2021/12/12 00:02:09;;;;;;;1.42;1.30;;;;;;;-11.70;84.28;100732.13;4981852;28;20043;-87
2021/12/12 00:04:38;;;;;;;;;;;;;;;-11.65;84.41;100729.34;4977218;28;20077;-87
2021/12/12 00:07:09;;;;;;;1.30;1.20;;;;;;;-11.69;84.05;100738.22;4960284;28;19926;-88
2021/12/12 00:09:43;;;;;;;1.60;1.50;;;;;;;-11.68;84.06;100732.09;4968350;28;20423;-90
2021/12/12 00:12:25;;;;;;;1.40;1.30;;;;;;;-11.71;84.48;100740.88;4973916;28;20051;-89
2021/12/12 00:14:54;;;;;;;1.30;1.20;;;;;;;-11.64;84.32;100749.31;4943579;28;20050;-90
2021/12/12 00:17:24;;;;;;;1.30;1.20;;;;;;;-11.60;84.29;100740.44;4953912;28;20055;-88
2021/12/12 00:19:51;;;;;;;1.35;1.25;;;;;;;-11.57;84.50;100745.53;4968777;28;20054;-88
2021/12/12 00:22:24;;;;;;;1.30;1.20;;;;;;;-11.57;84.37;100741.19;4981823;28;20510;-90
2021/12/12 00:24:53;;;;;;;1.38;1.27;;;;;;;-11.52;84.35;100746.19;4978188;28;20073;-89
2021/12/12 00:27:21;;;;;;;1.30;1.23;;;;;;;-11.52;84.30;100754.00;4997091;28;20054;-87
2021/12/12 00:29:50;;;;;;;1.30;1.20;;;;;;;-11.57;84.45;100753.34;4980729;28;20077;-85
2021/12/12 00:32:19;;;;;;;1.50;1.40;;;;;;;-11.58;84.60;100754.25;4998122;28;20042;-86
2021/12/12 00:34:52;;;;;;;1.40;1.30;;;;;;;-11.64;84.60;100757.13;4996918;28;20054;-88
2021/12/12 00:37:20;;;;;;;1.40;1.30;;;;;;;-11.64;85.00;100759.72;5000923;28;20054;-93
2021/12/12 00:39:55;;;;;;;1.20;1.10;;;;;;;-11.66;85.22;100751.97;4997211;28;20501;-88
2021/12/12 00:42:26;;;;;;;1.35;1.25;;;;;;;-11.65;85.09;100758.84;4987707;28;20077;-88
2021/12/12 00:44:57;;;;;;;1.40;1.30;;;;;;;-11.65;85.21;100755.41;4991878;28;20050;-84
2021/12/12 00:47:25;;;;;;;1.35;1.25;;;;;;;-11.64;85.20;100763.16;4983354;28;20132;-90
2021/12/12 00:50:14;;;;;;;1.40;1.30;;;;;;;-11.62;85.54;100752.66;4996670;28;20050;-87
2021/12/12 00:52:44;;;;;;;1.30;1.20;;;;;;;-11.56;85.45;100761.09;4989133;28;20057;-83
2021/12/12 00:55:11;;;;;;;1.10;1.10;;;;;;;-11.64;85.27;100767.53;4978471;28;20074;-84
2021/12/12 00:57:39;;;;;;;1.23;1.13;;;;;;;-11.72;85.42;100769.56;4993771;28;20078;-85
2021/12/12 01:00:09;;;;;;;1.40;1.30;;;;;;;-11.78;85.35;100768.06;4993028;28;20085;-84
2021/12/12 01:02:37;;;;;;;1.25;1.20;;;;;;;-11.79;85.42;100764.63;4993914;28;20054;-85
2021/12/12 01:05:09;;;;;;;1.40;1.30;;;;;;;-11.78;85.46;100761.09;4994023;28;20070;-85
2021/12/12 01:07:39;;;;;;;1.00;1.00;;;;;;;-11.78;85.65;100765.47;4993674;28;20043;-85
2021/12/12 01:10:23;;;;;;;1.17;1.17;;;;;;;-11.79;85.79;100753.34;4993748;28;20058;-86
2021/12/12 01:12:51;;;;;;;1.10;1.10;;;;;;;-11.80;85.95;100751.63;4993013;28;20146;-86
2021/12/12 01:15:25;;;;;;;1.10;1.10;;;;;;;-11.78;85.77;100752.44;4993038;28;20054;-86
2021/12/12 01:17:54;;;;;;;;;;;;;;;-11.82;85.82;100754.31;4992804;28;20081;-85
2021/12/12 01:20:27;;;;;;;1.27;1.20;;;;;;;-11.85;86.01;100754.44;4978429;28;20304;-86
2021/12/12 01:22:58;;;;;;;1.30;1.20;;;;;;;-11.77;86.23;100761.97;4976643;28;20077;-86
2021/12/12 01:25:31;;;;;;;1.40;1.30;;;;;;;-11.68;86.11;100742.50;4992819;28;20053;-85
2021/12/12 01:27:59;;;;;;;1.40;1.30;;;;;;;-11.68;85.98;100739.91;4993160;28;20104;-84
2021/12/12 01:30:27;;;;;;;1.40;1.30;;;;;;;-11.69;86.11;100743.44;4975335;28;20536;-86
2021/12/12 01:32:55;;;;;;;1.40;1.30;;;;;;;-11.68;85.91;100738.13;4975194;28;20046;-85
2021/12/12 01:35:24;;;;;;;1.33;1.23;;;;;;;-11.63;85.78;100725.78;4975654;28;20078;-85
2021/12/12 01:38:56;;;;;;;1.20;1.20;;;;;;;-11.62;85.71;100737.03;4992528;28;20454;-84
2021/12/12 01:40:55;;;;;;;1.30;1.20;;;;;;;-11.65;85.63;100729.34;4963841;28;20081;-84
2021/12/12 01:43:30;;;;;;;1.33;1.23;;;;;;;-11.64;85.68;100728.47;4994323;28;20054;-84
2021/12/12 01:46:05;;;;;;;1.30;1.20;;;;;;;-11.63;85.63;100728.38;4982292;28;20043;-84
2021/12/12 01:48:48;;;;;;;1.10;1.10;;;;;;;-11.59;85.47;100729.13;4960811;28;20421;-90
2021/12/12 01:51:16;;;;;;;1.35;1.25;;;;;;;-11.61;85.12;100739.59;4958382;28;20569;-86
2021/12/12 01:53:47;;;;;;;1.33;1.23;;;;;;;-11.59;85.60;100723.91;4972953;28;20153;-86
2021/12/12 01:56:18;;;;;;;1.23;1.20;;;;;;;-11.62;85.33;100735.31;4972572;28;20105;-85
2021/12/12 01:58:49;;;;;;;1.35;1.25;;;;;;;-11.56;85.33;100735.03;4973110;28;20110;-86
2021/12/12 02:01:22;;;;;;;1.10;1.10;;;;;;;-11.51;85.41;100731.41;4975823;28;20059;-86
2021/12/12 02:03:54;;;;;;;1.30;1.20;;;;;;;-11.49;85.23;100733.06;4968641;28;20065;-86
2021/12/12 02:06:23;;;;;;;1.42;1.33;;;;;;;-11.48;85.18;100729.53;4959040;28;20046;-85
2021/12/12 02:08:53;;;;;;;1.10;1.10;;;;;;;-11.50;85.25;100725.28;4977060;28;20110;-85
2021/12/12 02:11:24;;;;;;;1.10;1.10;;;;;;;-11.54;85.09;100729.78;4976517;28;20057;-87
2021/12/12 02:13:56;;;;;;;1.33;1.23;;;;;;;-11.53;85.35;100718.44;4959718;28;20055;-85
2021/12/12 02:16:27;;;;;;;1.58;1.48;;;;;;;-11.51;85.45;100711.41;4976010;28;20066;-84
2021/12/12 02:18:58;;;;;;;1.10;1.10;;;;;;;-11.49;85.22;100733.06;4974923;28;20094;-84
2021/12/12 02:21:33;;;;;;;1.30;1.20;;;;;;;-11.47;85.18;100727.75;4974584;28;20059;-85
2021/12/12 02:35:14;;;;;;;1.10;1.10;;;;;;;-11.43;85.04;100703.28;4975926;28;20054;-85
2021/12/12 02:37:42;;;;;;;1.33;1.23;;;;;;;-11.42;85.18;100705.84;4974833;28;20051;-84
2021/12/12 02:40:22;;;;;;;1.17;1.17;;;;;;;-11.38;85.27;100710.00;4943211;28;20068;-85
2021/12/12 02:42:51;;;;;;;1.30;1.20;;;;;;;-11.38;85.18;100706.53;4975906;28;20055;-85
2021/12/12 02:45:20;;;;;;;1.30;1.20;;;;;;;-11.33;85.36;100704.59;4958543;28;20043;-85
2021/12/12 02:47:54;;;;;;;1.50;1.40;;;;;;;-11.34;85.27;100695.09;4975985;28;20391;-84
2021/12/12 02:50:25;;;;;;;1.50;1.40;;;;;;;-11.30;85.41;100708.84;4975965;28;20149;-84
2021/12/12 02:52:55;;;;;;;1.30;1.20;;;;;;;-11.27;85.55;100698.28;4959889;28;20051;-85
2021/12/12 02:55:36;;;;;;;1.40;1.30;;;;;;;-11.22;85.49;100701.53;4958033;28;20082;-85
2021/12/12 02:58:05;;;;;;;1.17;1.15;;;;;;;-11.25;85.56;100692.09;4974632;28;20149;-85
2021/12/12 03:00:38;;;;;;;1.30;1.20;;;;;;;-11.20;85.69;100695.34;4975532;28;20058;-84
2021/12/12 03:03:05;;;;;;;1.40;1.30;;;;;;;-11.20;85.57;100695.34;4975423;28;20090;-84
2021/12/12 03:05:35;;;;;;;1.13;1.13;;;;;;;-11.10;85.67;100705.41;4958102;28;20073;-85
2021/12/12 03:08:03;;;;;;;1.40;1.30;;;;;;;-11.10;85.61;100716.66;4975280;28;20524;-84
2021/12/12 03:10:35;;;;;;;1.05;1.05;;;;;;;-11.06;85.63;100706.94;4975437;28;20050;-84
2021/12/12 03:13:05;;;;;;;1.10;1.10;;;;;;;-11.08;85.60;100701.81;4974794;28;20054;-86
2021/12/12 03:15:38;;;;;;;1.25;1.15;;;;;;;-11.07;85.66;100710.47;4958188;28;20097;-87
2021/12/12 03:18:09;;;;;;;1.40;1.30;;;;;;;-11.09;85.71;100707.91;4961334;28;20039;-86
2021/12/12 03:20:41;;;;;;;1.30;1.20;;;;;;;-11.05;85.73;100709.50;4977055;28;20085;-86
2021/12/12 03:23:46;;;;;;;1.02;1.02;;;;;;;-11.05;85.84;100706.88;4975113;28;20502;-85
2021/12/12 03:26:15;;;;;;;1.33;1.23;;;;;;;-11.10;85.85;100697.56;4972037;28;20078;-86
2021/12/12 03:28:44;;;;;;;1.30;1.20;;;;;;;-11.11;86.12;100696.72;4975518;28;20050;-86
2021/12/12 03:31:20;;;;;;;1.17;1.10;;;;;;;-11.05;86.09;100700.84;4975720;28;20061;-85
2021/12/12 03:33:47;;;;;;;;;;;;;;;-11.02;86.24;100703.31;4975096;28;20146;-85
2021/12/12 03:36:16;;;;;;;1.10;1.10;;;;;;;-11.02;86.17;100696.31;4974703;28;19950;-85
2021/12/12 03:38:48;;;;;;;1.20;1.20;;;;;;;-10.99;86.33;100695.34;4974633;28;20418;-85
2021/12/12 03:41:19;;;;;;;1.10;1.10;;;;;;;-10.98;86.35;100690.06;4957320;28;20047;-86
2021/12/12 03:43:55;;;;;;;1.45;1.35;;;;;;;-11.06;86.28;100681.75;4974999;28;20047;-85
2021/12/12 03:46:23;;;;;;;1.25;1.20;;;;;;;-10.99;86.45;100706.59;4974677;28;20580;-84
2021/12/12 03:48:50;;;;;;;1.00;1.00;;;;;;;-10.95;86.70;100704.75;4975235;28;20151;-84
2021/12/12 03:51:20;;;;;;;1.10;1.10;;;;;;;-10.95;86.46;100702.97;4974290;28;20046;-85
2021/12/12 03:53:48;;;;;;;1.20;1.10;;;;;;;-10.98;86.61;100699.66;4957313;28;20445;-85
2021/12/12 03:56:16;;;;;;;1.10;1.10;;;;;;;-11.12;86.66;100677.59;4946796;28;20050;-85
2021/12/12 03:58:45;;;;;;;1.40;1.30;;;;;;;-10.95;86.58;100696.91;4981125;28;20129;-86
2021/12/12 04:01:18;;;;;;;1.40;1.30;;;;;;;-10.93;86.60;100688.09;4962607;28;20023;-85
2021/12/12 04:03:47;;;;;;;1.35;1.25;;;;;;;-10.97;86.34;100685.69;4964139;28;20051;-85
2021/12/12 04:06:18;;;;;;;1.10;1.10;;;;;;;-11.00;86.56;100689.28;4957562;28;20054;-85
2021/12/12 04:08:48;;;;;;;1.23;1.17;;;;;;;-11.05;86.54;100699.06;4975460;28;20075;-85
2021/12/12 04:11:20;;;;;;;1.13;1.13;;;;;;;-11.08;86.61;100704.41;4975143;28;20070;-86
2021/12/12 04:13:50;;;;;;;1.40;1.30;;;;;;;-11.17;86.59;100687.38;4967673;28;20108;-85
2021/12/12 04:16:18;;;;;;;1.15;1.15;;;;;;;-11.27;86.38;100691.28;4940872;28;20057;-85
2021/12/12 04:18:46;;;;;;;1.45;1.35;;;;;;;-11.16;86.49;100712.56;4956710;28;20046;-85
2021/12/12 04:21:17;;;;;;;1.40;1.30;;;;;;;-11.21;86.35;100711.91;4973935;28;20509;-84
2021/12/12 04:23:44;;;;;;;1.42;1.33;;;;;;;-11.25;86.56;100702.50;4974004;28;20050;-84
2021/12/12 04:26:22;;;;;;;1.50;1.40;;;;;;;-11.15;86.34;100721.22;4972407;28;20089;-86
2021/12/12 04:29:16;;;;;;;1.40;1.30;;;;;;;-11.14;86.38;100717.69;4940726;28;20054;-85
2021/12/12 04:31:50;;;;;;;1.30;1.20;;;;;;;-11.17;86.37;100710.84;4974140;28;20053;-84
2021/12/12 04:34:22;;;;;;;1.38;1.27;;;;;;;-11.13;86.27;100727.22;4973760;28;20090;-85
2021/12/12 04:36:50;;;;;;;1.10;1.10;;;;;;;-11.10;86.28;100731.47;4974475;28;20059;-85
2021/12/12 04:39:39;;;;;;;1.50;1.40;;;;;;;-11.10;86.05;100732.31;4972888;28;20042;-85
2021/12/12 04:42:12;;;;;;;1.10;1.10;;;;;;;-11.21;86.02;100729.31;4976889;28;20047;-84
2021/12/12 04:44:42;;;;;;;1.13;1.13;;;;;;;-11.22;86.23;100728.44;4973060;28;20050;-85
2021/12/12 04:50:14;;;;;;;1.30;1.20;;;;;;;-11.29;85.77;100732.25;4975813;28;20078;-85
2021/12/12 04:53:00;;;;;;;1.50;1.40;;;;;;;-11.40;86.15;100735.28;4976620;28;20105;-85
2021/12/12 04:55:33;;;;;;;1.30;1.20;;;;;;;-11.53;86.20;100735.84;4943099;28;20051;-85
2021/12/12 04:58:07;;;;;;;1.40;1.30;;;;;;;-11.46;86.40;100730.31;4958996;28;20058;-85
2021/12/12 05:00:46;;;;;;;1.30;1.20;;;;;;;-11.45;86.41;100741.59;4976014;28;20050;-84
2021/12/12 05:03:26;;;;;;;1.30;1.20;;;;;;;-11.37;86.13;100745.59;4941209;28;20576;-85
2021/12/12 05:06:43;;;;;;;1.08;1.08;;;;;;;-11.32;86.45;100747.13;4973894;28;20086;-84
2021/12/12 05:09:18;;;;;;;1.35;1.25;;;;;;;-11.30;86.31;100742.72;4975946;28;20059;-86
2021/12/12 05:11:52;;;;;;;1.30;1.20;;;;;;;-11.40;86.10;100740.47;4974879;28;20050;-88
2021/12/12 05:14:24;;;;;;;1.40;1.30;;;;;;;-11.37;86.20;100736.91;4978225;28;20074;-89
2021/12/12 05:17:13;;;;;;;1.40;1.30;;;;;;;-11.33;86.07;100737.63;4969852;28;20058;-89
2021/12/12 05:19:46;;;;;;;1.40;1.30;;;;;;;-11.46;86.19;100743.34;4978374;28;20426;-88
2021/12/12 05:22:16;;;;;;;1.30;1.20;;;;;;;-11.46;86.39;100734.69;4977058;28;20083;-89
2021/12/12 05:24:48;;;;;;;1.27;1.20;;;;;;;-11.43;86.41;100739.78;4946890;28;20058;-87
2021/12/12 05:27:18;;;;;;;1.10;1.10;;;;;;;-11.39;86.46;100738.75;4958886;28;20065;-87
2021/12/12 05:29:58;;;;;;;1.13;1.13;;;;;;;-11.38;86.58;100738.66;4958036;28;20070;-82
2021/12/12 05:32:27;;;;;;;1.40;1.30;;;;;;;-11.31;86.55;100738.44;4977220;28;20061;-85
2021/12/12 05:34:55;;;;;;;1.40;1.30;;;;;;;-11.30;86.54;100742.72;4956977;28;20065;-86
2021/12/12 05:37:23;;;;;;;1.35;1.25;;;;;;;-11.30;86.61;100743.56;4971518;28;20142;-82
2021/12/12 05:39:53;;;;;;;1.50;1.40;;;;;;;-11.30;86.86;100740.13;4964899;28;20097;-88
2021/12/12 05:42:22;;;;;;;1.27;1.17;;;;;;;-11.28;86.67;100746.97;4911528;29;20111;-87
2021/12/12 05:44:49;;;;;;;1.50;1.40;;;;;;;-11.29;86.85;100733.97;4904330;29;20048;-88
2021/12/12 05:47:17;;;;;;;1.40;1.30;;;;;;;-11.30;87.01;100745.31;4921874;29;20103;-88
2021/12/12 05:49:45;;;;;;;1.40;1.30;;;;;;;-11.31;86.81;100738.44;4922877;29;20492;-89
2021/12/12 05:52:16;;;;;;;1.30;1.20;;;;;;;-11.28;86.88;100741.75;4912496;29;20059;-89
2021/12/12 05:54:45;;;;;;;1.35;1.25;;;;;;;-11.20;86.92;100746.63;4925196;29;20075;-89
2021/12/12 05:57:16;;;;;;;1.50;1.40;;;;;;;-11.15;86.81;100747.28;4923020;29;20067;-91
2021/12/12 05:59:44;;;;;;;1.10;1.10;;;;;;;-11.15;86.92;100752.50;4919846;29;20058;-90
2021/12/12 06:02:11;;;;;;;1.35;1.25;;;;;;;-11.14;86.87;100752.47;4908449;29;20087;-83
2021/12/12 06:04:42;;;;;;;1.40;1.30;;;;;;;-11.20;86.79;100738.81;4910064;29;20043;-90
2021/12/12 06:07:18;;;;;;;1.25;1.20;;;;;;;-11.14;86.79;100746.38;4926470;29;20525;-88
2021/12/12 06:09:48;;;;;;;1.40;1.30;;;;;;;-11.14;87.02;100741.16;4910660;29;20039;-91
2021/12/12 06:12:16;;;;;;;1.33;1.23;;;;;;;-11.19;86.90;100737.91;4980354;23;20062;-88
2021/12/12 06:14:44;;;;;;;1.30;1.20;;;;;;;-11.17;86.86;100755.16;4951288;28;20046;-86
2021/12/12 06:17:16;;;;;;;1.30;1.20;;;;;;;-11.13;86.82;100748.09;4996263;28;20057;-93
2021/12/12 06:19:46;;;;;;;1.23;1.17;;;;;;;-11.10;86.83;100752.31;4998676;28;20054;-93
2021/12/12 06:22:14;;;;;;;1.38;1.27;;;;;;;-11.04;86.87;100763.31;4980064;28;20061;-92
2021/12/12 06:25:31;;;;;;;1.40;1.30;;;;;;;-10.99;86.60;100744.88;4963780;29;20059;-91
2021/12/12 06:27:58;;;;;;;1.40;1.30;;;;;;;-10.98;86.66;100751.81;4963656;29;20055;-88
2021/12/12 06:30:26;;;;;;;1.30;1.20;;;;;;;-10.91;86.68;100748.88;4952932;28;20086;-93
2021/12/12 06:32:54;;;;;;;1.23;1.20;;;;;;;-10.83;86.69;100750.31;4985333;23;20034;-90
2021/12/12 06:35:25;;;;;;;1.38;1.27;;;;;;;-10.89;86.59;100738.38;5030892;28;20045;-91
2021/12/12 06:38:03;;;;;;;1.00;1.00;;;;;;;-10.88;86.41;100734.03;5035209;28;20045;-89
2021/12/12 06:40:31;;;;;;;1.40;1.30;;;;;;;-10.80;86.42;100740.59;4999207;28;20029;-91
2021/12/12 06:43:03;;;;;;;1.25;1.20;;;;;;;-10.83;86.50;100737.28;4957627;28;20046;-90
2021/12/12 06:45:45;;;;;;;1.30;1.20;;;;;;;-10.76;86.48;100756.94;4992700;28;20042;-93
2021/12/12 06:48:15;;;;;;;1.40;1.30;;;;;;;-10.77;86.58;100757.88;4979383;28;20051;-89
2021/12/12 06:50:44;;;;;;;1.10;1.10;;;;;;;-10.79;86.29;100751.88;5005863;28;20030;-90
2021/12/12 06:53:29;;;;;;;1.10;1.10;;;;;;;-10.80;86.31;100761.47;4974131;28;20058;-85
2021/12/12 06:55:56;;;;;;;1.40;1.30;;;;;;;-10.80;86.52;100758.00;5002511;28;20090;-89
2021/12/12 06:58:27;;;;;;;1.35;1.25;;;;;;;-10.82;86.33;100762.44;4982664;28;20093;-88
2021/12/12 07:01:21;;;;;;;1.33;1.23;;;;;;;-10.84;86.51;100756.44;4978061;28;20107;-90
2021/12/12 07:03:50;;;;;;;1.52;1.42;;;;;;;-10.92;86.61;100749.78;4895279;29;20116;-90
2021/12/12 07:06:19;;;;;;;1.40;1.30;;;;;;;-10.79;86.56;100765.75;4909413;29;20056;-91
2021/12/12 07:08:48;;;;;;;1.40;1.30;;;;;;;-10.82;86.49;100752.84;4934418;29;20057;-88
2021/12/12 07:11:23;;;;;;;1.42;1.33;;;;;;;-10.75;86.57;100756.06;4877324;29;20056;-88
2021/12/12 07:13:50;;;;;;;;;;;;;;;-10.68;86.73;100749.66;4907931;29;20056;-85
2021/12/12 07:16:20;;;;;;;1.40;1.30;;;;;;;-10.79;86.45;100737.06;4917378;29;19927;-90
2021/12/12 07:18:48;;;;;;;1.50;1.40;;;;;;;-10.77;86.49;100750.03;4897199;29;20059;-90
2021/12/12 07:21:17;;;;;;;1.40;1.30;;;;;;;-10.75;86.58;100754.28;4911006;29;20064;-87
2021/12/12 07:24:10;;;;;;;1.53;1.43;;;;;;;-10.71;86.51;100749.75;4917340;29;20079;-88
2021/12/12 07:26:44;;;;;;;1.40;1.30;;;;;;;-10.82;86.54;100734.59;4929418;29;20354;-90
2021/12/12 07:29:19;;;;;;;1.17;1.13;;;;;;;-10.81;86.85;100732.81;4888004;29;20060;-88
2021/12/12 07:31:53;;;;;;;1.30;1.20;;;;;;;-10.69;86.48;100727.06;4562556;29;10000658;-87
2021/12/12 07:34:21;;;;;;;1.40;1.30;;;;;;;-10.58;86.65;100740.50;4928466;29;20048;-94
2021/12/12 07:36:59;;;;;;;1.42;1.33;;;;;;;-10.64;86.68;100739.91;4926070;29;20440;-88
2021/12/12 07:39:31;;;;;;;1.40;1.30;;;;;;;-10.66;86.66;100726.94;4897326;29;20083;-89
2021/12/12 07:42:01;;;;;;;1.42;1.33;;;;;;;-10.49;86.88;100731.41;4954984;28;20067;-89
2021/12/12 07:44:33;;;;;;;1.30;1.20;;;;;;;-10.42;86.85;100743.28;4982362;28;20038;-87
2021/12/12 07:47:07;;;;;;;1.50;1.40;;;;;;;-10.38;86.70;100730.94;4960026;28;20084;-87
2021/12/12 07:49:38;;;;;;;;;;;;;;;-10.26;86.64;100735.56;4961025;28;20145;-88
2021/12/12 07:52:14;;;;;;;1.30;1.20;;;;;;;-10.31;86.56;100737.56;4927833;29;19934;-89
2021/12/12 07:54:45;;;;;;;1.45;1.35;;;;;;;-10.30;86.27;100741.91;4933322;29;20059;-87
2021/12/12 07:57:27;;;;;;;1.40;1.30;;;;;;;-10.31;86.52;100734.97;4900438;29;20052;-90
2021/12/12 08:00:38;;;;;;;1.30;1.20;;;;;;;-10.29;86.45;100730.53;4899085;29;20060;-88
2021/12/12 08:03:16;;;;;;;1.30;1.20;;;;;;;-10.11;86.46;100742.69;4896101;29;20078;-86
2021/12/12 08:05:43;;;;;;;1.13;1.13;;;;;;;-10.02;86.54;100754.50;4897539;29;20117;-89
2021/12/12 08:08:46;;;;;;;1.50;1.40;;;;;;;-9.94;86.42;100746.31;4906433;29;20054;-90
2021/12/12 08:11:53;;;;;;;1.20;1.10;;;;;;;-10.01;86.09;100734.44;4901767;29;20049;-84
2021/12/12 08:15:22;;;;;;;1.40;1.30;;;;;;;-10.14;86.18;100735.00;4879138;29;20067;-88
2021/12/12 08:20:50;;;;;;;1.40;1.30;;;;;;;-9.96;86.24;100745.53;4988824;28;20070;-94
2021/12/12 08:26:21;;;;;;;1.30;1.20;;;;;;;-9.87;86.56;100724.22;5286007;23;20054;-93
2021/12/12 08:29:11;;;;;;;1.50;1.40;;;;;;;-9.97;86.31;100696.84;5271690;23;20105;-87
2021/12/12 08:31:39;;;;;;;1.40;1.30;;;;;;;-9.81;86.28;100710.84;4989141;28;20102;-89
2021/12/12 08:34:18;;;;;;;1.33;1.23;;;;;;;-9.80;86.53;100709.91;4984892;28;20142;-94
2021/12/12 08:37:05;;;;;;;1.30;1.20;;;;;;;-9.86;86.67;100689.31;4938503;29;20522;-88
2021/12/12 08:39:55;;;;;;;1.30;1.20;;;;;;;-9.70;86.29;100699.88;4987654;23;20151;-89
2021/12/12 08:42:27;;;;;;;1.40;1.30;;;;;;;-9.60;86.39;100708.97;4970536;28;20502;-92
2021/12/12 08:45:11;;;;;;;1.27;1.17;;;;;;;-9.65;86.26;100719.63;4951066;28;20101;-91
2021/12/12 08:47:49;;;;;;;1.33;1.23;;;;;;;-9.61;86.55;100729.03;4987570;28;20059;-87
2021/12/12 08:50:51;;;;;;;1.38;1.27;;;;;;;-9.57;86.80;100729.72;4952224;28;20050;-88
2021/12/12 08:53:22;;;;;;;1.50;1.40;;;;;;;-9.48;86.69;100716.22;4922519;28;20074;-87
2021/12/12 08:55:53;;;;;;;1.30;1.20;;;;;;;-9.35;86.69;100713.84;4948397;28;20062;-88
2021/12/12 08:58:23;;;;;;;1.40;1.30;;;;;;;-9.26;86.48;100723.84;4903260;28;20054;-87
2021/12/12 09:01:10;;;;;;;1.20;1.10;;;;;;;-9.20;86.42;100730.53;4933421;28;20043;-85
2021/12/12 09:03:57;;;;;;;1.40;1.30;;;;;;;-9.31;86.24;100715.38;4937052;28;20107;-89
2021/12/12 09:07:08;;;;;;;1.17;1.10;;;;;;;-9.28;86.68;100719.63;4942241;28;20062;-88
2021/12/12 09:09:59;;;;;;;1.33;1.23;;;;;;;-9.33;86.90;100711.16;4939897;29;20138;-88
2021/12/12 09:12:41;;;;;;;1.40;1.30;;;;;;;-9.27;86.91;100713.47;4915010;29;20431;-89
2021/12/12 09:15:38;;;;;;;1.48;1.20;;;;;;;-9.19;87.21;100706.94;4955176;29;20074;-90
2021/12/12 09:18:37;;;;;;;1.38;1.23;;;;;;;-9.22;87.03;100716.69;4922411;29;20091;-92
2021/12/12 09:21:57;;;;;;;1.50;1.40;;;;;;;-9.14;87.35;100703.22;4917503;29;20052;-89
2021/12/12 09:24:44;;;;;;;1.95;1.30;;;;;;;-9.14;87.31;100692.75;4888589;29;20060;-92
2021/12/12 09:27:38;;;;;;;1.40;1.30;;;;;;;-8.96;87.46;100705.78;4863088;29;20453;-84
2021/12/12 09:30:32;;;;;;;1.30;1.20;;;;;;;-8.95;87.45;100699.59;4878790;29;20056;-92
2021/12/12 09:33:33;;;;;;;1.45;1.35;;;;;;;-8.81;87.60;100708.50;4851576;29;20058;-87
2021/12/12 09:36:07;;;;;;;1.25;1.15;;;;;;;-8.76;87.88;100694.28;4849143;29;20475;-88
2021/12/12 09:38:42;;;;;;;1.40;1.30;;;;;;;-8.69;87.94;100702.63;4851657;29;20050;-87
2021/12/12 09:41:23;;;;;;;2.03;1.50;;;;;;;-8.70;88.05;100690.50;4828910;29;20130;-92
2021/12/12 09:43:56;;;;;;;1.50;1.40;;;;;;;-8.70;88.14;100700.13;4833193;29;20046;-86
2021/12/12 09:53:58;;;;;;;1.25;1.15;;;;;;;-8.37;87.80;100705.31;4845945;29;20076;-88
2021/12/12 09:56:51;;;;;;;1.58;1.30;;;;;;;-8.34;87.95;100681.56;4833902;29;20526;-91
2021/12/12 09:59:50;;;;;;;1.20;1.10;;;;;;;-8.31;87.91;100687.47;4845355;29;20061;-88
2021/12/12 10:02:41;;;;;;;1.20;1.10;;;;;;;-8.34;87.86;100687.66;4879810;29;20064;-83
2021/12/12 10:06:16;;;;;;;1.27;1.17;;;;;;;-8.34;88.09;100692.88;4942469;29;20046;-88
2021/12/12 10:08:57;;;;;;;1.30;1.20;;;;;;;-8.36;88.27;100694.72;4857105;29;20458;-88
2021/12/12 10:11:50;;;;;;;1.63;1.40;;;;;;;-8.37;88.37;100697.44;4842013;29;20286;-88
2021/12/12 10:14:46;;;;;;;1.17;1.08;;;;;;;-8.43;88.31;100689.94;4843364;29;20144;-85
2021/12/12 10:17:24;;;;;;;1.27;1.20;;;;;;;-8.41;88.49;100680.22;4856687;29;20053;-85
2021/12/12 10:19:59;;;;;;;0.98;0.98;;;;;;;-8.42;88.53;100671.53;4863305;29;20171;-87
2021/12/12 10:23:03;;;;;;;1.33;1.23;;;;;;;-8.41;88.78;100664.53;4871333;29;20060;-88
2021/12/12 10:25:41;;;;;;;1.10;1.10;;;;;;;-8.36;88.79;100659.84;4848887;29;20069;-86
2021/12/12 10:28:32;;;;;;;1.20;1.10;;;;;;;-8.30;88.88;100665.59;4860253;29;20076;-82
2021/12/12 10:31:22;;;;;;;1.90;1.30;;;;;;;-8.30;88.94;100673.47;4864028;29;20053;-85
2021/12/12 10:33:53;;;;;;;1.42;1.30;;;;;;;-8.31;89.10;100676.16;4872458;29;20072;-85
2021/12/12 10:36:29;;;;;;;1.27;1.17;;;;;;;-8.26;89.17;100668.06;4878859;29;20049;-85
2021/12/12 10:39:07;;;;;;;1.25;1.05;;;;;;;-8.16;89.24;100666.63;4831517;29;20068;-86
2021/12/12 10:41:39;;;;;;;1.60;1.30;;;;;;;-8.13;89.05;100669.06;4859857;29;20081;-86
2021/12/12 10:44:38;;;;;;;1.00;1.00;;;;;;;-8.14;89.17;100663.00;4864635;29;20060;-85
2021/12/12 10:47:16;;;;;;;1.23;1.20;;;;;;;-8.04;89.36;100652.84;4897553;29;20086;-87
2021/12/12 10:50:12;;;;;;;0.82;0.82;;;;;;;-7.89;89.28;100661.63;4921557;29;20503;-87
2021/12/12 10:52:47;;;;;;;1.23;1.13;;;;;;;-7.76;89.29;100664.41;4922938;29;20154;-85
2021/12/12 10:55:22;;;;;;;;;;;;;;;-7.75;89.14;100652.97;4920713;29;20043;-85
2021/12/12 10:58:04;;;;;;;1.15;1.05;;;;;;;-7.82;89.00;100662.97;4939249;29;19942;-86
2021/12/12 11:00:36;;;;;;;0.73;0.73;;;;;;;-7.86;89.28;100658.84;4904447;29;20056;-84
2021/12/12 11:03:21;;;;;;;1.13;1.00;;;;;;;-7.83;89.00;100665.69;4926913;29;20062;-84
2021/12/12 11:06:17;;;;;;;1.40;1.20;;;;;;;-7.81;89.49;100664.66;4923679;29;20047;-85
2021/12/12 11:09:03;;;;;;;0.90;0.90;;;;;;;-7.74;89.59;100665.16;4918539;29;20117;-84
2021/12/12 11:11:46;;;;;;;0.80;0.80;;;;;;;-7.73;89.45;100672.94;4923945;29;20089;-89
2021/12/12 11:15:03;;;;;;;1.10;1.10;;;;;;;-7.74;89.44;100675.66;4912842;29;20518;-88
2021/12/12 11:17:34;;;;;;;0.90;0.90;;;;;;;-7.67;89.69;100674.34;4930653;29;20048;-83
2021/12/12 11:20:14;;;;;;;1.15;1.15;;;;;;;-7.69;89.59;100678.84;4933475;29;20073;-84
2021/12/12 11:22:55;;;;;;;0.90;0.90;;;;;;;-7.61;89.83;100675.81;4955469;29;20498;-85
2021/12/12 11:25:49;;;;;;;1.77;1.20;;;;;;;-7.59;89.73;100671.31;4936022;29;20043;-86
2021/12/12 11:28:29;;;;;;;1.08;1.00;;;;;;;-7.61;89.92;100671.41;4943039;29;20055;-85
2021/12/12 11:31:00;;;;;;;0.90;0.90;;;;;;;-7.60;90.01;100657.34;4934322;29;20051;-84
2021/12/12 11:33:31;;;;;;;0.85;0.85;;;;;;;-7.54;90.11;100659.63;4937583;29;20169;-84
2021/12/12 11:35:59;;;;;;;0.90;0.90;;;;;;;-7.48;90.33;100672.38;4954393;29;20057;-84
2021/12/12 11:38:48;;;;;;;0.88;0.85;;;;;;;-7.46;90.15;100660.03;4937939;29;20110;-85
2021/12/12 11:41:29;;;;;;;0.85;0.85;;;;;;;-7.44;90.16;100655.53;4888746;29;20062;-85
2021/12/12 11:44:32;;;;;;;0.93;0.93;;;;;;;-7.40;90.28;100658.81;4927261;29;20055;-85
2021/12/12 11:47:13;;;;;;;0.82;0.82;;;;;;;-7.38;90.31;100661.38;4944794;28;20416;-87
2021/12/12 11:49:56;;;;;;;0.88;0.88;;;;;;;-7.42;90.13;100653.69;4937635;28;20047;-86
2021/12/12 11:52:54;;;;;;;0.93;0.93;;;;;;;-7.47;90.02;100655.72;4940007;28;20047;-87
2021/12/12 11:55:33;;;;;;;1.17;1.02;;;;;;;-7.44;90.38;100652.06;4958095;28;20077;-86
2021/12/12 11:58:31;;;;;;;1.10;0.95;;;;;;;-7.39;90.38;100654.41;4932229;28;20047;-86
2021/12/12 12:01:10;;;;;;;0.90;0.90;;;;;;;-7.39;90.55;100651.78;4956965;28;20066;-85
2021/12/12 12:04:00;;;;;;;0.95;0.90;;;;;;;-7.45;90.56;100664.31;4939306;28;20051;-86
2021/12/12 12:06:59;;;;;;;0.80;0.80;;;;;;;-7.45;90.49;100656.44;4941350;28;20050;-83
2021/12/12 12:10:04;;;;;;;0.90;0.90;;;;;;;-7.37;90.89;100652.53;4939544;28;20068;-85
2021/12/12 12:13:04;;;;;;;1.00;1.00;;;;;;;-7.35;90.86;100656.75;4955667;28;20047;-85
2021/12/12 12:15:54;;;;;;;1.00;1.00;;;;;;;-7.33;91.11;100651.44;4943533;28;20055;-85
2021/12/12 12:18:34;;;;;;;0.80;0.80;;;;;;;-7.31;90.99;100653.03;4954921;28;20055;-86
2021/12/12 12:21:19;;;;;;;0.88;0.88;;;;;;;-7.23;91.31;100653.44;4941815;28;20553;-85
2021/12/12 12:26:53;;;;;;;0.88;0.88;;;;;;;-7.21;91.31;100658.59;4953346;28;20050;-85
2021/12/12 12:29:32;;;;;;;0.70;0.70;;;;;;;-7.14;91.23;100653.81;4952822;28;20105;-83
2021/12/12 12:32:37;;;;;;;0.98;0.98;;;;;;;-7.10;91.22;100663.19;4958458;28;20502;-84
2021/12/12 12:35:33;;;;;;;0.82;0.82;;;;;;;-7.08;91.32;100666.59;4958171;28;20077;-83
2021/12/12 12:38:39;;;;;;;0.90;0.90;;;;;;;-7.08;91.57;100662.19;4956298;28;20569;-86
2021/12/12 12:41:43;;;;;;;0.95;0.95;;;;;;;-7.08;91.26;100656.94;4924473;28;20062;-85